sensor_id;sensor_type;location;lat;lon;timestamp;P1;durP1;ratioP1;P2;durP2;ratioP2
27670;SDS011;15077;49.704;9.908;2023-01-16T00:01:51;5.55;;;1.42;;
27670;SDS011;15077;49.704;9.908;2023-01-16T00:04:18;3.92;;;1.27;;
27670;SDS011;15077;49.704;9.908;2023-01-16T00:06:44;5.50;;;1.17;;
27670;SDS011;15077;49.704;9.908;2023-01-16T00:09:10;2.92;;;1.10;;
27670;SDS011;15077;49.704;9.908;2023-01-16T00:11:36;7.07;;;1.48;;
27670;SDS011;15077;49.704;9.908;2023-01-16T00:14:01;2.47;;;0.90;;
27670;SDS011;15077;49.704;9.908;2023-01-16T00:16:27;2.13;;;1.02;;
27670;SDS011;15077;49.704;9.908;2023-01-16T00:18:53;3.70;;;1.40;;
27670;SDS011;15077;49.704;9.908;2023-01-16T00:21:20;4.72;;;1.13;;
27670;SDS011;15077;49.704;9.908;2023-01-16T00:23:50;3.75;;;1.20;;
27670;SDS011;15077;49.704;9.908;2023-01-16T00:26:21;7.65;;;1.58;;
27670;SDS011;15077;49.704;9.908;2023-01-16T00:28:49;1.88;;;1.08;;
27670;SDS011;15077;49.704;9.908;2023-01-16T00:31:15;3.75;;;1.38;;
27670;SDS011;15077;49.704;9.908;2023-01-16T00:33:41;5.07;;;1.33;;
27670;SDS011;15077;49.704;9.908;2023-01-16T00:36:08;4.05;;;1.15;;
27670;SDS011;15077;49.704;9.908;2023-01-16T00:38:35;3.15;;;0.98;;
27670;SDS011;15077;49.704;9.908;2023-01-16T00:41:01;1.48;;;0.70;;
27670;SDS011;15077;49.704;9.908;2023-01-16T00:43:28;3.25;;;1.05;;
27670;SDS011;15077;49.704;9.908;2023-01-16T00:45:54;3.63;;;1.58;;
27670;SDS011;15077;49.704;9.908;2023-01-16T00:48:21;4.30;;;1.08;;
27670;SDS011;15077;49.704;9.908;2023-01-16T00:50:48;4.13;;;1.27;;
27670;SDS011;15077;49.704;9.908;2023-01-16T00:53:14;3.05;;;0.90;;
27670;SDS011;15077;49.704;9.908;2023-01-16T00:55:42;1.70;;;0.85;;
27670;SDS011;15077;49.704;9.908;2023-01-16T00:58:09;3.15;;;0.88;;
27670;SDS011;15077;49.704;9.908;2023-01-16T01:00:37;1.83;;;0.93;;
27670;SDS011;15077;49.704;9.908;2023-01-16T01:03:05;3.50;;;1.10;;
27670;SDS011;15077;49.704;9.908;2023-01-16T01:05:36;1.75;;;0.70;;
27670;SDS011;15077;49.704;9.908;2023-01-16T01:08:04;2.50;;;1.20;;
27670;SDS011;15077;49.704;9.908;2023-01-16T01:10:32;3.25;;;0.60;;
27670;SDS011;15077;49.704;9.908;2023-01-16T01:13:04;2.95;;;0.98;;
27670;SDS011;15077;49.704;9.908;2023-01-16T01:15:32;4.72;;;0.68;;
27670;SDS011;15077;49.704;9.908;2023-01-16T01:18:00;2.65;;;0.85;;
27670;SDS011;15077;49.704;9.908;2023-01-16T01:20:26;1.38;;;0.80;;
27670;SDS011;15077;49.704;9.908;2023-01-16T01:22:54;3.40;;;0.98;;
27670;SDS011;15077;49.704;9.908;2023-01-16T01:25:20;3.83;;;1.48;;
27670;SDS011;15077;49.704;9.908;2023-01-16T01:27:48;2.83;;;0.90;;
27670;SDS011;15077;49.704;9.908;2023-01-16T01:30:16;2.17;;;0.65;;
27670;SDS011;15077;49.704;9.908;2023-01-16T01:32:42;2.80;;;0.70;;
27670;SDS011;15077;49.704;9.908;2023-01-16T01:35:08;4.20;;;0.77;;
27670;SDS011;15077;49.704;9.908;2023-01-16T01:37:35;3.08;;;1.02;;
27670;SDS011;15077;49.704;9.908;2023-01-16T01:40:01;3.25;;;1.08;;
27670;SDS011;15077;49.704;9.908;2023-01-16T01:42:29;2.35;;;0.93;;
27670;SDS011;15077;49.704;9.908;2023-01-16T01:45:14;3.63;;;0.90;;
27670;SDS011;15077;49.704;9.908;2023-01-16T01:47:45;3.88;;;1.35;;
27670;SDS011;15077;49.704;9.908;2023-01-16T01:55:44;4.07;;;0.70;;
27670;SDS011;15077;49.704;9.908;2023-01-16T01:58:13;3.10;;;0.88;;
27670;SDS011;15077;49.704;9.908;2023-01-16T02:00:46;3.22;;;0.40;;
27670;SDS011;15077;49.704;9.908;2023-01-16T02:03:27;2.45;;;0.68;;
27670;SDS011;15077;49.704;9.908;2023-01-16T02:06:05;1.25;;;0.70;;
27670;SDS011;15077;49.704;9.908;2023-01-16T02:08:41;4.43;;;1.33;;
27670;SDS011;15077;49.704;9.908;2023-01-16T02:11:19;2.38;;;0.85;;
27670;SDS011;15077;49.704;9.908;2023-01-16T02:14:05;1.63;;;0.40;;
27670;SDS011;15077;49.704;9.908;2023-01-16T02:16:35;4.75;;;0.70;;
27670;SDS011;15077;49.704;9.908;2023-01-16T02:22:27;1.85;;;0.65;;
27670;SDS011;15077;49.704;9.908;2023-01-16T02:26:00;2.40;;;0.77;;
27670;SDS011;15077;49.704;9.908;2023-01-16T02:40:21;5.15;;;1.40;;
27670;SDS011;15077;49.704;9.908;2023-01-16T02:43:01;2.63;;;0.60;;
27670;SDS011;15077;49.704;9.908;2023-01-16T02:52:04;3.47;;;0.80;;
27670;SDS011;15077;49.704;9.908;2023-01-16T02:55:10;3.63;;;0.95;;
27670;SDS011;15077;49.704;9.908;2023-01-16T02:58:04;4.03;;;1.13;;
27670;SDS011;15077;49.704;9.908;2023-01-16T03:00:37;2.65;;;0.88;;
27670;SDS011;15077;49.704;9.908;2023-01-16T03:03:24;1.55;;;0.70;;
27670;SDS011;15077;49.704;9.908;2023-01-16T03:06:19;2.22;;;0.70;;
27670;SDS011;15077;49.704;9.908;2023-01-16T03:14:24;3.28;;;0.70;;
27670;SDS011;15077;49.704;9.908;2023-01-16T03:26:22;2.53;;;0.68;;
27670;SDS011;15077;49.704;9.908;2023-01-16T03:32:09;3.00;;;0.93;;
27670;SDS011;15077;49.704;9.908;2023-01-16T03:35:05;2.85;;;0.63;;
27670;SDS011;15077;49.704;9.908;2023-01-16T03:37:57;1.40;;;0.60;;
27670;SDS011;15077;49.704;9.908;2023-01-16T03:40:34;2.63;;;0.75;;
27670;SDS011;15077;49.704;9.908;2023-01-16T03:43:23;2.20;;;0.80;;
27670;SDS011;15077;49.704;9.908;2023-01-16T03:46:15;3.90;;;1.10;;
27670;SDS011;15077;49.704;9.908;2023-01-16T03:51:35;2.53;;;0.70;;
27670;SDS011;15077;49.704;9.908;2023-01-16T03:57:28;4.60;;;1.13;;
27670;SDS011;15077;49.704;9.908;2023-01-16T04:00:20;5.20;;;1.23;;
27670;SDS011;15077;49.704;9.908;2023-01-16T04:03:02;4.82;;;0.90;;
27670;SDS011;15077;49.704;9.908;2023-01-16T04:05:45;2.47;;;0.95;;
27670;SDS011;15077;49.704;9.908;2023-01-16T04:08:51;1.92;;;0.88;;
27670;SDS011;15077;49.704;9.908;2023-01-16T04:11:21;7.32;;;1.23;;
27670;SDS011;15077;49.704;9.908;2023-01-16T04:13:51;2.40;;;0.75;;
27670;SDS011;15077;49.704;9.908;2023-01-16T04:16:24;1.88;;;0.93;;
27670;SDS011;15077;49.704;9.908;2023-01-16T04:18:50;3.70;;;0.93;;
27670;SDS011;15077;49.704;9.908;2023-01-16T04:21:27;1.80;;;0.70;;
27670;SDS011;15077;49.704;9.908;2023-01-16T04:23:56;4.68;;;1.40;;
27670;SDS011;15077;49.704;9.908;2023-01-16T04:26:26;3.70;;;1.05;;
27670;SDS011;15077;49.704;9.908;2023-01-16T04:28:52;3.40;;;1.10;;
27670;SDS011;15077;49.704;9.908;2023-01-16T04:31:24;2.25;;;0.90;;
27670;SDS011;15077;49.704;9.908;2023-01-16T04:33:53;3.58;;;0.70;;
27670;SDS011;15077;49.704;9.908;2023-01-16T04:36:20;1.52;;;0.57;;
27670;SDS011;15077;49.704;9.908;2023-01-16T04:38:46;3.75;;;1.10;;
27670;SDS011;15077;49.704;9.908;2023-01-16T04:41:13;4.20;;;1.00;;
27670;SDS011;15077;49.704;9.908;2023-01-16T04:44:01;2.80;;;0.85;;
27670;SDS011;15077;49.704;9.908;2023-01-16T04:46:32;2.88;;;0.60;;
27670;SDS011;15077;49.704;9.908;2023-01-16T04:48:59;2.25;;;0.70;;
27670;SDS011;15077;49.704;9.908;2023-01-16T04:51:27;1.85;;;0.50;;
27670;SDS011;15077;49.704;9.908;2023-01-16T04:53:55;5.05;;;0.60;;
27670;SDS011;15077;49.704;9.908;2023-01-16T04:56:21;2.30;;;0.70;;
27670;SDS011;15077;49.704;9.908;2023-01-16T04:58:47;2.88;;;0.75;;
27670;SDS011;15077;49.704;9.908;2023-01-16T05:01:16;3.55;;;0.77;;
27670;SDS011;15077;49.704;9.908;2023-01-16T05:03:42;3.40;;;1.08;;
27670;SDS011;15077;49.704;9.908;2023-01-16T05:06:08;1.55;;;0.80;;
27670;SDS011;15077;49.704;9.908;2023-01-16T05:08:34;3.47;;;1.00;;
27670;SDS011;15077;49.704;9.908;2023-01-16T05:10:59;3.28;;;0.88;;
27670;SDS011;15077;49.704;9.908;2023-01-16T05:13:26;3.75;;;0.70;;
27670;SDS011;15077;49.704;9.908;2023-01-16T05:15:53;0.95;;;0.43;;
27670;SDS011;15077;49.704;9.908;2023-01-16T05:18:20;3.00;;;0.93;;
27670;SDS011;15077;49.704;9.908;2023-01-16T05:20:45;2.30;;;0.70;;
27670;SDS011;15077;49.704;9.908;2023-01-16T05:23:11;2.17;;;0.73;;
27670;SDS011;15077;49.704;9.908;2023-01-16T05:25:37;4.10;;;0.68;;
27670;SDS011;15077;49.704;9.908;2023-01-16T05:28:03;3.22;;;0.80;;
27670;SDS011;15077;49.704;9.908;2023-01-16T05:30:30;3.38;;;0.75;;
27670;SDS011;15077;49.704;9.908;2023-01-16T05:32:56;2.72;;;0.70;;
27670;SDS011;15077;49.704;9.908;2023-01-16T05:35:22;3.10;;;0.70;;
27670;SDS011;15077;49.704;9.908;2023-01-16T05:37:48;3.75;;;0.90;;
27670;SDS011;15077;49.704;9.908;2023-01-16T05:40:14;1.30;;;0.60;;
27670;SDS011;15077;49.704;9.908;2023-01-16T05:42:42;1.23;;;0.60;;
27670;SDS011;15077;49.704;9.908;2023-01-16T05:45:09;2.13;;;0.77;;
27670;SDS011;15077;49.704;9.908;2023-01-16T05:47:36;3.83;;;0.70;;
27670;SDS011;15077;49.704;9.908;2023-01-16T05:50:02;1.52;;;0.90;;
27670;SDS011;15077;49.704;9.908;2023-01-16T05:52:28;3.30;;;0.80;;
27670;SDS011;15077;49.704;9.908;2023-01-16T05:54:54;2.70;;;0.65;;
27670;SDS011;15077;49.704;9.908;2023-01-16T05:57:21;2.08;;;0.82;;
27670;SDS011;15077;49.704;9.908;2023-01-16T05:59:51;2.30;;;0.55;;
27670;SDS011;15077;49.704;9.908;2023-01-16T06:02:18;1.27;;;0.40;;
27670;SDS011;15077;49.704;9.908;2023-01-16T06:04:45;2.08;;;0.88;;
27670;SDS011;15077;49.704;9.908;2023-01-16T06:07:12;3.67;;;0.70;;
27670;SDS011;15077;49.704;9.908;2023-01-16T06:09:39;1.50;;;0.70;;
27670;SDS011;15077;49.704;9.908;2023-01-16T06:12:05;3.30;;;1.05;;
27670;SDS011;15077;49.704;9.908;2023-01-16T06:14:32;2.40;;;0.70;;
27670;SDS011;15077;49.704;9.908;2023-01-16T06:16:59;2.35;;;0.73;;
27670;SDS011;15077;49.704;9.908;2023-01-16T06:19:25;2.83;;;0.55;;
27670;SDS011;15077;49.704;9.908;2023-01-16T06:21:50;2.10;;;0.50;;
27670;SDS011;15077;49.704;9.908;2023-01-16T06:24:16;1.40;;;0.50;;
27670;SDS011;15077;49.704;9.908;2023-01-16T06:26:41;3.63;;;0.95;;
27670;SDS011;15077;49.704;9.908;2023-01-16T06:29:08;2.25;;;0.70;;
27670;SDS011;15077;49.704;9.908;2023-01-16T06:31:35;2.20;;;1.15;;
27670;SDS011;15077;49.704;9.908;2023-01-16T06:34:01;2.67;;;1.70;;
27670;SDS011;15077;49.704;9.908;2023-01-16T06:36:27;6.35;;;1.83;;
27670;SDS011;15077;49.704;9.908;2023-01-16T06:38:53;3.17;;;1.15;;
27670;SDS011;15077;49.704;9.908;2023-01-16T06:41:18;3.67;;;1.00;;
27670;SDS011;15077;49.704;9.908;2023-01-16T06:43:44;3.63;;;0.75;;
27670;SDS011;15077;49.704;9.908;2023-01-16T06:46:10;1.63;;;0.60;;
27670;SDS011;15077;49.704;9.908;2023-01-16T06:48:35;2.55;;;0.70;;
27670;SDS011;15077;49.704;9.908;2023-01-16T06:51:01;3.20;;;0.70;;
27670;SDS011;15077;49.704;9.908;2023-01-16T06:53:27;2.75;;;0.70;;
27670;SDS011;15077;49.704;9.908;2023-01-16T06:55:53;3.28;;;1.80;;
27670;SDS011;15077;49.704;9.908;2023-01-16T06:58:19;6.43;;;2.80;;
27670;SDS011;15077;49.704;9.908;2023-01-16T07:00:44;5.72;;;2.47;;
27670;SDS011;15077;49.704;9.908;2023-01-16T07:03:15;4.32;;;2.15;;
27670;SDS011;15077;49.704;9.908;2023-01-16T07:05:43;4.85;;;2.00;;
27670;SDS011;15077;49.704;9.908;2023-01-16T07:08:10;3.60;;;1.88;;
27670;SDS011;15077;49.704;9.908;2023-01-16T07:10:36;4.28;;;1.70;;
27670;SDS011;15077;49.704;9.908;2023-01-16T07:13:02;4.25;;;2.00;;
27670;SDS011;15077;49.704;9.908;2023-01-16T07:15:28;3.58;;;1.35;;
27670;SDS011;15077;49.704;9.908;2023-01-16T07:18:13;1.92;;;0.82;;
27670;SDS011;15077;49.704;9.908;2023-01-16T07:21:01;4.22;;;0.80;;
27670;SDS011;15077;49.704;9.908;2023-01-16T07:23:49;5.13;;;1.50;;
27670;SDS011;15077;49.704;9.908;2023-01-16T07:26:21;2.20;;;1.02;;
27670;SDS011;15077;49.704;9.908;2023-01-16T07:28:47;2.17;;;1.20;;
27670;SDS011;15077;49.704;9.908;2023-01-16T07:31:15;1.65;;;0.57;;
27670;SDS011;15077;49.704;9.908;2023-01-16T07:33:41;1.75;;;0.90;;
27670;SDS011;15077;49.704;9.908;2023-01-16T07:36:07;3.75;;;1.20;;
27670;SDS011;15077;49.704;9.908;2023-01-16T07:38:33;2.28;;;0.75;;
27670;SDS011;15077;49.704;9.908;2023-01-16T07:40:59;3.53;;;0.95;;
27670;SDS011;15077;49.704;9.908;2023-01-16T07:43:25;3.42;;;0.80;;
27670;SDS011;15077;49.704;9.908;2023-01-16T07:45:50;1.80;;;1.00;;
27670;SDS011;15077;49.704;9.908;2023-01-16T07:48:19;1.75;;;0.70;;
27670;SDS011;15077;49.704;9.908;2023-01-16T07:50:51;3.38;;;1.15;;
27670;SDS011;15077;49.704;9.908;2023-01-16T07:53:23;1.98;;;1.15;;
27670;SDS011;15077;49.704;9.908;2023-01-16T07:55:53;2.65;;;1.13;;
27670;SDS011;15077;49.704;9.908;2023-01-16T07:58:21;3.28;;;0.80;;
27670;SDS011;15077;49.704;9.908;2023-01-16T08:00:47;4.78;;;0.98;;
27670;SDS011;15077;49.704;9.908;2023-01-16T08:03:14;2.55;;;1.30;;
27670;SDS011;15077;49.704;9.908;2023-01-16T08:05:40;4.20;;;1.20;;
27670;SDS011;15077;49.704;9.908;2023-01-16T08:08:09;5.10;;;1.30;;
27670;SDS011;15077;49.704;9.908;2023-01-16T08:10:37;3.70;;;2.30;;
27670;SDS011;15077;49.704;9.908;2023-01-16T08:13:04;5.68;;;2.90;;
27670;SDS011;15077;49.704;9.908;2023-01-16T08:15:31;2.20;;;1.60;;
27670;SDS011;15077;49.704;9.908;2023-01-16T08:17:57;3.40;;;1.40;;
27670;SDS011;15077;49.704;9.908;2023-01-16T08:20:23;2.85;;;1.30;;
27670;SDS011;15077;49.704;9.908;2023-01-16T08:22:50;5.35;;;1.98;;
27670;SDS011;15077;49.704;9.908;2023-01-16T08:25:18;3.47;;;1.35;;
27670;SDS011;15077;49.704;9.908;2023-01-16T08:27:47;3.05;;;1.10;;
27670;SDS011;15077;49.704;9.908;2023-01-16T08:30:13;3.55;;;1.52;;
27670;SDS011;15077;49.704;9.908;2023-01-16T08:32:40;2.63;;;1.00;;
27670;SDS011;15077;49.704;9.908;2023-01-16T08:35:07;2.70;;;1.17;;
27670;SDS011;15077;49.704;9.908;2023-01-16T08:37:34;4.03;;;1.60;;
27670;SDS011;15077;49.704;9.908;2023-01-16T08:40:01;3.33;;;1.27;;
27670;SDS011;15077;49.704;9.908;2023-01-16T08:42:29;3.05;;;1.30;;
27670;SDS011;15077;49.704;9.908;2023-01-16T08:45:13;5.70;;;1.10;;
27670;SDS011;15077;49.704;9.908;2023-01-16T08:47:58;2.08;;;0.95;;
27670;SDS011;15077;49.704;9.908;2023-01-16T08:50:44;2.35;;;1.30;;
27670;SDS011;15077;49.704;9.908;2023-01-16T08:53:31;3.42;;;1.25;;
27670;SDS011;15077;49.704;9.908;2023-01-16T08:55:58;3.63;;;1.02;;
27670;SDS011;15077;49.704;9.908;2023-01-16T08:58:24;1.83;;;1.13;;
27670;SDS011;15077;49.704;9.908;2023-01-16T09:00:49;2.85;;;1.23;;
27670;SDS011;15077;49.704;9.908;2023-01-16T09:03:16;1.95;;;0.88;;
27670;SDS011;15077;49.704;9.908;2023-01-16T09:05:42;2.08;;;1.30;;
27670;SDS011;15077;49.704;9.908;2023-01-16T09:08:08;2.50;;;1.13;;
27670;SDS011;15077;49.704;9.908;2023-01-16T09:10:35;1.85;;;0.80;;
27670;SDS011;15077;49.704;9.908;2023-01-16T09:13:02;1.42;;;0.77;;
27670;SDS011;15077;49.704;9.908;2023-01-16T09:15:47;1.67;;;1.20;;
27670;SDS011;15077;49.704;9.908;2023-01-16T09:18:13;2.08;;;1.30;;
27670;SDS011;15077;49.704;9.908;2023-01-16T09:20:39;2.50;;;0.82;;
27670;SDS011;15077;49.704;9.908;2023-01-16T09:23:05;1.80;;;1.20;;
27670;SDS011;15077;49.704;9.908;2023-01-16T09:25:31;2.05;;;0.75;;
27670;SDS011;15077;49.704;9.908;2023-01-16T09:27:58;2.30;;;1.05;;
27670;SDS011;15077;49.704;9.908;2023-01-16T09:30:25;1.80;;;0.90;;
27670;SDS011;15077;49.704;9.908;2023-01-16T09:32:52;3.17;;;1.00;;
27670;SDS011;15077;49.704;9.908;2023-01-16T09:35:18;3.25;;;1.20;;
27670;SDS011;15077;49.704;9.908;2023-01-16T09:37:45;1.95;;;1.00;;
27670;SDS011;15077;49.704;9.908;2023-01-16T09:40:12;4.75;;;1.40;;
27670;SDS011;15077;49.704;9.908;2023-01-16T09:42:51;2.47;;;1.20;;
27670;SDS011;15077;49.704;9.908;2023-01-16T09:46:25;2.67;;;1.23;;
27670;SDS011;15077;49.704;9.908;2023-01-16T09:49:00;2.03;;;0.85;;
27670;SDS011;15077;49.704;9.908;2023-01-16T09:51:37;1.70;;;0.90;;
27670;SDS011;15077;49.704;9.908;2023-01-16T09:54:32;1.92;;;1.00;;
27670;SDS011;15077;49.704;9.908;2023-01-16T09:57:26;1.30;;;0.85;;
27670;SDS011;15077;49.704;9.908;2023-01-16T10:00:14;1.92;;;0.85;;
27670;SDS011;15077;49.704;9.908;2023-01-16T10:02:43;2.08;;;0.90;;
27670;SDS011;15077;49.704;9.908;2023-01-16T10:05:09;3.72;;;0.85;;
27670;SDS011;15077;49.704;9.908;2023-01-16T10:10:52;1.58;;;0.63;;
27670;SDS011;15077;49.704;9.908;2023-01-16T10:24:44;2.65;;;1.05;;
27670;SDS011;15077;49.704;9.908;2023-01-16T10:28:12;3.03;;;0.90;;
27670;SDS011;15077;49.704;9.908;2023-01-16T10:31:20;1.73;;;0.80;;
27670;SDS011;15077;49.704;9.908;2023-01-16T10:34:04;1.38;;;0.77;;
27670;SDS011;15077;49.704;9.908;2023-01-16T10:36:39;1.52;;;1.10;;
27670;SDS011;15077;49.704;9.908;2023-01-16T10:39:11;1.60;;;0.95;;
27670;SDS011;15077;49.704;9.908;2023-01-16T10:41:44;6.60;;;4.05;;
27670;SDS011;15077;49.704;9.908;2023-01-16T10:44:36;2.53;;;1.30;;
27670;SDS011;15077;49.704;9.908;2023-01-16T10:47:26;2.78;;;1.88;;
27670;SDS011;15077;49.704;9.908;2023-01-16T10:50:18;3.08;;;1.33;;
27670;SDS011;15077;49.704;9.908;2023-01-16T10:52:47;1.63;;;0.90;;
27670;SDS011;15077;49.704;9.908;2023-01-16T10:55:14;3.83;;;1.67;;
27670;SDS011;15077;49.704;9.908;2023-01-16T10:57:46;4.43;;;1.92;;
27670;SDS011;15077;49.704;9.908;2023-01-16T11:00:29;3.58;;;1.52;;
27670;SDS011;15077;49.704;9.908;2023-01-16T11:06:05;1.58;;;0.82;;
27670;SDS011;15077;49.704;9.908;2023-01-16T11:08:41;5.57;;;1.40;;
27670;SDS011;15077;49.704;9.908;2023-01-16T11:11:10;1.10;;;0.55;;
27670;SDS011;15077;49.704;9.908;2023-01-16T11:13:57;0.90;;;0.50;;
27670;SDS011;15077;49.704;9.908;2023-01-16T11:16:44;0.98;;;0.50;;
27670;SDS011;15077;49.704;9.908;2023-01-16T11:19:28;1.00;;;0.60;;
27670;SDS011;15077;49.704;9.908;2023-01-16T11:22:17;1.58;;;0.63;;
27670;SDS011;15077;49.704;9.908;2023-01-16T11:24:53;2.45;;;0.60;;
27670;SDS011;15077;49.704;9.908;2023-01-16T11:27:29;2.97;;;0.90;;
27670;SDS011;15077;49.704;9.908;2023-01-16T11:30:06;2.22;;;1.05;;
27670;SDS011;15077;49.704;9.908;2023-01-16T11:32:41;3.60;;;1.88;;
27670;SDS011;15077;49.704;9.908;2023-01-16T11:35:13;5.78;;;3.10;;
27670;SDS011;15077;49.704;9.908;2023-01-16T11:37:42;4.85;;;3.45;;
27670;SDS011;15077;49.704;9.908;2023-01-16T11:40:35;7.05;;;4.30;;
27670;SDS011;15077;49.704;9.908;2023-01-16T11:43:06;4.20;;;2.33;;
27670;SDS011;15077;49.704;9.908;2023-01-16T11:45:58;3.10;;;1.45;;
27670;SDS011;15077;49.704;9.908;2023-01-16T11:51:08;1.40;;;0.63;;
27670;SDS011;15077;49.704;9.908;2023-01-16T11:53:43;1.98;;;0.65;;
27670;SDS011;15077;49.704;9.908;2023-01-16T12:05:14;1.80;;;0.70;;
27670;SDS011;15077;49.704;9.908;2023-01-16T12:09:08;2.22;;;0.80;;
27670;SDS011;15077;49.704;9.908;2023-01-16T12:15:01;0.47;;;0.32;;
27670;SDS011;15077;49.704;9.908;2023-01-16T12:17:53;0.93;;;0.45;;
27670;SDS011;15077;49.704;9.908;2023-01-16T12:23:55;2.15;;;0.47;;
27670;SDS011;15077;49.704;9.908;2023-01-16T12:29:35;1.25;;;0.30;;
27670;SDS011;15077;49.704;9.908;2023-01-16T12:43:51;1.85;;;0.52;;
27670;SDS011;15077;49.704;9.908;2023-01-16T12:46:50;1.02;;;0.50;;
27670;SDS011;15077;49.704;9.908;2023-01-16T12:52:33;4.10;;;1.02;;
27670;SDS011;15077;49.704;9.908;2023-01-16T12:55:25;1.05;;;0.50;;
27670;SDS011;15077;49.704;9.908;2023-01-16T12:58:16;2.47;;;0.40;;
27670;SDS011;15077;49.704;9.908;2023-01-16T13:01:01;1.85;;;0.60;;
27670;SDS011;15077;49.704;9.908;2023-01-16T13:03:50;0.75;;;0.43;;
27670;SDS011;15077;49.704;9.908;2023-01-16T13:06:30;0.82;;;0.40;;
27670;SDS011;15077;49.704;9.908;2023-01-16T13:12:22;1.48;;;0.68;;
27670;SDS011;15077;49.704;9.908;2023-01-16T13:15:21;0.65;;;0.43;;
27670;SDS011;15077;49.704;9.908;2023-01-16T13:17:55;1.23;;;0.50;;
27670;SDS011;15077;49.704;9.908;2023-01-16T13:20:47;0.57;;;0.30;;
27670;SDS011;15077;49.704;9.908;2023-01-16T13:23:21;0.20;;;0.20;;
27670;SDS011;15077;49.704;9.908;2023-01-16T13:26:03;0.85;;;0.38;;
27670;SDS011;15077;49.704;9.908;2023-01-16T13:31:18;1.42;;;0.40;;
27670;SDS011;15077;49.704;9.908;2023-01-16T13:37:01;0.68;;;0.50;;
27670;SDS011;15077;49.704;9.908;2023-01-16T13:42:50;2.53;;;0.60;;
27670;SDS011;15077;49.704;9.908;2023-01-16T13:45:47;3.35;;;1.63;;
27670;SDS011;15077;49.704;9.908;2023-01-16T13:48:19;3.33;;;1.73;;
27670;SDS011;15077;49.704;9.908;2023-01-16T13:50:58;2.80;;;1.02;;
27670;SDS011;15077;49.704;9.908;2023-01-16T13:53:30;1.08;;;0.50;;
27670;SDS011;15077;49.704;9.908;2023-01-16T13:56:05;7.40;;;2.72;;
27670;SDS011;15077;49.704;9.908;2023-01-16T13:58:44;14.75;;;5.63;;
27670;SDS011;15077;49.704;9.908;2023-01-16T14:01:31;19.75;;;6.80;;
27670;SDS011;15077;49.704;9.908;2023-01-16T14:06:49;5.07;;;1.80;;
27670;SDS011;15077;49.704;9.908;2023-01-16T14:15:48;8.05;;;3.05;;
27670;SDS011;15077;49.704;9.908;2023-01-16T14:24:03;2.42;;;1.30;;
27670;SDS011;15077;49.704;9.908;2023-01-16T14:29:28;2.13;;;1.15;;
27670;SDS011;15077;49.704;9.908;2023-01-16T14:32:03;2.40;;;1.20;;
27670;SDS011;15077;49.704;9.908;2023-01-16T14:38:33;2.75;;;1.50;;
27670;SDS011;15077;49.704;9.908;2023-01-16T14:40:48;1.95;;;0.82;;
27670;SDS011;15077;49.704;9.908;2023-01-16T14:50:11;2.30;;;1.23;;
27670;SDS011;15077;49.704;9.908;2023-01-16T14:53:12;4.07;;;2.10;;
27670;SDS011;15077;49.704;9.908;2023-01-16T14:58:59;2.10;;;1.20;;
27670;SDS011;15077;49.704;9.908;2023-01-16T15:01:44;1.70;;;0.95;;
27670;SDS011;15077;49.704;9.908;2023-01-16T15:07:16;2.58;;;1.38;;
27670;SDS011;15077;49.704;9.908;2023-01-16T15:09:51;5.85;;;2.28;;
27670;SDS011;15077;49.704;9.908;2023-01-16T15:12:20;2.95;;;1.60;;
27670;SDS011;15077;49.704;9.908;2023-01-16T15:14:54;3.03;;;1.63;;
27670;SDS011;15077;49.704;9.908;2023-01-16T15:17:36;4.22;;;2.00;;
27670;SDS011;15077;49.704;9.908;2023-01-16T15:20:26;3.20;;;1.90;;
27670;SDS011;15077;49.704;9.908;2023-01-16T15:26:15;1.55;;;1.00;;
27670;SDS011;15077;49.704;9.908;2023-01-16T15:32:03;3.40;;;2.20;;
27670;SDS011;15077;49.704;9.908;2023-01-16T15:34:42;3.63;;;2.50;;
27670;SDS011;15077;49.704;9.908;2023-01-16T15:37:17;4.22;;;2.50;;
27670;SDS011;15077;49.704;9.908;2023-01-16T15:39:48;1.75;;;1.20;;
27670;SDS011;15077;49.704;9.908;2023-01-16T15:42:19;2.35;;;1.50;;
27670;SDS011;15077;49.704;9.908;2023-01-16T15:45:12;3.25;;;1.50;;
27670;SDS011;15077;49.704;9.908;2023-01-16T15:48:25;4.13;;;2.15;;
27670;SDS011;15077;49.704;9.908;2023-01-16T15:51:09;4.13;;;2.42;;
27670;SDS011;15077;49.704;9.908;2023-01-16T15:53:41;2.55;;;1.50;;
27670;SDS011;15077;49.704;9.908;2023-01-16T15:56:25;2.60;;;1.20;;
27670;SDS011;15077;49.704;9.908;2023-01-16T15:59:01;1.70;;;0.95;;
27670;SDS011;15077;49.704;9.908;2023-01-16T16:01:35;1.63;;;1.02;;
27670;SDS011;15077;49.704;9.908;2023-01-16T16:04:02;1.95;;;1.40;;
27670;SDS011;15077;49.704;9.908;2023-01-16T16:06:29;1.95;;;1.10;;
27670;SDS011;15077;49.704;9.908;2023-01-16T16:08:57;2.15;;;0.98;;
27670;SDS011;15077;49.704;9.908;2023-01-16T16:11:25;1.85;;;0.80;;
27670;SDS011;15077;49.704;9.908;2023-01-16T16:14:20;1.20;;;0.60;;
27670;SDS011;15077;49.704;9.908;2023-01-16T16:17:22;2.30;;;1.23;;
27670;SDS011;15077;49.704;9.908;2023-01-16T16:25:39;1.23;;;0.70;;
27670;SDS011;15077;49.704;9.908;2023-01-16T16:31:02;2.90;;;1.45;;
27670;SDS011;15077;49.704;9.908;2023-01-16T16:33:34;2.33;;;1.02;;
27670;SDS011;15077;49.704;9.908;2023-01-16T16:36:00;1.98;;;0.80;;
27670;SDS011;15077;49.704;9.908;2023-01-16T16:38:32;1.67;;;0.80;;
27670;SDS011;15077;49.704;9.908;2023-01-16T16:43:44;1.75;;;1.05;;
27670;SDS011;15077;49.704;9.908;2023-01-16T16:48:56;3.42;;;1.83;;
27670;SDS011;15077;49.704;9.908;2023-01-16T16:51:43;1.38;;;0.80;;
27670;SDS011;15077;49.704;9.908;2023-01-16T16:54:14;1.38;;;0.80;;
27670;SDS011;15077;49.704;9.908;2023-01-16T16:56:47;1.23;;;1.00;;
27670;SDS011;15077;49.704;9.908;2023-01-16T16:59:25;1.27;;;0.75;;
27670;SDS011;15077;49.704;9.908;2023-01-16T17:01:54;1.23;;;0.70;;
27670;SDS011;15077;49.704;9.908;2023-01-16T17:04:28;1.65;;;0.90;;
27670;SDS011;15077;49.704;9.908;2023-01-16T17:06:54;1.60;;;0.90;;
27670;SDS011;15077;49.704;9.908;2023-01-16T17:09:21;1.85;;;0.70;;
27670;SDS011;15077;49.704;9.908;2023-01-16T17:11:51;2.95;;;1.10;;
27670;SDS011;15077;49.704;9.908;2023-01-16T17:14:16;1.17;;;0.88;;
27670;SDS011;15077;49.704;9.908;2023-01-16T17:16:42;3.33;;;1.30;;
27670;SDS011;15077;49.704;9.908;2023-01-16T17:19:22;2.65;;;1.27;;
27670;SDS011;15077;49.704;9.908;2023-01-16T17:21:57;4.15;;;2.85;;
27670;SDS011;15077;49.704;9.908;2023-01-16T17:24:23;2.13;;;1.20;;
27670;SDS011;15077;49.704;9.908;2023-01-16T17:26:49;1.42;;;1.17;;
27670;SDS011;15077;49.704;9.908;2023-01-16T17:29:14;1.60;;;1.00;;
27670;SDS011;15077;49.704;9.908;2023-01-16T17:31:41;1.67;;;1.10;;
27670;SDS011;15077;49.704;9.908;2023-01-16T17:34:13;1.70;;;1.10;;
27670;SDS011;15077;49.704;9.908;2023-01-16T17:36:44;3.35;;;3.03;;
27670;SDS011;15077;49.704;9.908;2023-01-16T17:39:11;3.53;;;3.05;;
27670;SDS011;15077;49.704;9.908;2023-01-16T17:41:37;3.50;;;2.70;;
27670;SDS011;15077;49.704;9.908;2023-01-16T17:44:16;2.78;;;1.80;;
27670;SDS011;15077;49.704;9.908;2023-01-16T17:47:07;7.22;;;4.72;;
27670;SDS011;15077;49.704;9.908;2023-01-16T17:49:34;3.55;;;2.78;;
27670;SDS011;15077;49.704;9.908;2023-01-16T17:52:39;2.08;;;1.30;;
27670;SDS011;15077;49.704;9.908;2023-01-16T17:55:05;2.00;;;1.05;;
27670;SDS011;15077;49.704;9.908;2023-01-16T17:57:49;2.90;;;1.25;;
27670;SDS011;15077;49.704;9.908;2023-01-16T18:00:15;1.30;;;0.82;;
27670;SDS011;15077;49.704;9.908;2023-01-16T18:02:41;1.88;;;1.30;;
27670;SDS011;15077;49.704;9.908;2023-01-16T18:05:10;2.95;;;0.95;;
27670;SDS011;15077;49.704;9.908;2023-01-16T18:07:36;4.40;;;2.90;;
27670;SDS011;15077;49.704;9.908;2023-01-16T18:10:01;3.22;;;1.65;;
27670;SDS011;15077;49.704;9.908;2023-01-16T18:12:27;1.42;;;0.88;;
27670;SDS011;15077;49.704;9.908;2023-01-16T18:15:16;6.68;;;4.68;;
27670;SDS011;15077;49.704;9.908;2023-01-16T18:18:01;13.32;;;6.63;;
27670;SDS011;15077;49.704;9.908;2023-01-16T18:20:26;5.20;;;2.70;;